createdAt,value
2018-06-11T00:01:06.735Z,16.60
2018-06-11T00:03:34.265Z,16.50
2018-06-11T00:06:02.135Z,16.50
2018-06-11T00:08:29.725Z,16.40
2018-06-11T00:10:57.302Z,16.40
2018-06-11T00:13:24.844Z,16.40
2018-06-11T00:15:54.383Z,16.30
2018-06-11T00:18:21.943Z,16.30
2018-06-11T00:20:49.580Z,16.30
2018-06-11T00:23:17.148Z,16.30
2018-06-11T00:25:44.727Z,16.30
2018-06-11T00:28:12.279Z,16.20
2018-06-11T00:30:39.878Z,16.20
2018-06-11T00:33:07.402Z,16.20
2018-06-11T00:35:34.951Z,16.20
2018-06-11T00:38:02.457Z,16.10
2018-06-11T00:40:30.033Z,16.10
2018-06-11T00:42:57.560Z,16.10
2018-06-11T00:45:25.115Z,16.00
2018-06-11T00:47:52.743Z,16.00
2018-06-11T00:50:20.315Z,16.00
2018-06-11T00:52:47.890Z,16.00
2018-06-11T00:55:15.519Z,15.90
2018-06-11T00:57:43.069Z,15.90
2018-06-11T01:00:10.626Z,15.80
2018-06-11T01:02:38.204Z,15.80
2018-06-11T01:05:05.755Z,15.80
2018-06-11T01:07:33.276Z,15.70
2018-06-11T01:12:29.315Z,15.70
2018-06-11T01:14:58.047Z,15.60
2018-06-11T01:17:25.931Z,15.60
2018-06-11T01:19:53.469Z,15.60
2018-06-11T01:22:21.039Z,15.60
2018-06-11T01:24:48.591Z,15.60
2018-06-11T01:27:16.161Z,15.60
2018-06-11T01:29:43.737Z,15.60
2018-06-11T01:32:11.298Z,15.60
2018-06-11T01:34:38.826Z,15.60
2018-06-11T01:37:06.494Z,15.70
2018-06-11T01:39:33.986Z,15.70
2018-06-11T01:42:01.481Z,15.70
2018-06-11T01:44:29.010Z,15.70
2018-06-11T01:46:56.537Z,15.60
2018-06-11T01:49:24.138Z,15.60
2018-06-11T01:51:51.654Z,15.50
2018-06-11T01:54:19.412Z,15.40
2018-06-11T01:56:46.912Z,15.40
2018-06-11T01:59:14.406Z,15.40
2018-06-11T02:01:41.933Z,15.30
2018-06-11T02:04:09.449Z,15.30
2018-06-11T02:06:37.514Z,15.30
2018-06-11T02:09:06.597Z,15.30
2018-06-11T02:14:01.931Z,15.20
2018-06-11T02:16:29.466Z,15.20
2018-06-11T02:21:24.445Z,15.20
2018-06-11T02:23:51.994Z,15.20
2018-06-11T02:26:19.526Z,15.10
2018-06-11T02:28:47.077Z,15.10
2018-06-11T02:31:14.590Z,15.10
2018-06-11T02:33:42.534Z,15.10
2018-06-11T02:36:10.119Z,15.00
2018-06-11T02:38:38.009Z,15.00
2018-06-11T02:41:05.572Z,14.90
2018-06-11T02:43:33.107Z,14.90
2018-06-11T02:46:00.643Z,14.90
2018-06-11T02:48:28.135Z,14.80
2018-06-11T02:50:55.740Z,14.80
2018-06-11T02:53:23.227Z,14.80
2018-06-11T02:55:50.987Z,14.80
2018-06-11T02:58:18.514Z,14.80
2018-06-11T03:00:46.023Z,14.70
2018-06-11T03:03:13.560Z,14.70
2018-06-11T03:05:41.211Z,14.70
2018-06-11T03:08:08.723Z,14.70
2018-06-11T03:10:36.325Z,14.70
2018-06-11T03:13:04.146Z,14.70
2018-06-11T03:15:31.727Z,14.70
2018-06-11T03:17:59.252Z,14.70
2018-06-11T03:20:27.009Z,14.70
2018-06-11T03:22:54.490Z,14.70
2018-06-11T03:25:22.014Z,14.60
2018-06-11T03:27:49.486Z,14.60
2018-06-11T03:30:17.307Z,14.60
2018-06-11T03:32:45.969Z,14.60
2018-06-11T03:35:13.491Z,14.50
2018-06-11T03:37:41.037Z,14.50
2018-06-11T03:40:08.554Z,14.60
2018-06-11T03:42:36.046Z,14.50
2018-06-11T03:45:03.729Z,14.50
2018-06-11T03:47:31.230Z,14.60
2018-06-11T03:49:58.731Z,14.60
2018-06-11T03:52:26.263Z,14.60
2018-06-11T03:54:53.762Z,14.60
2018-06-11T03:57:21.289Z,14.70
2018-06-11T03:59:48.844Z,14.80
2018-06-11T04:02:16.347Z,14.90
2018-06-11T04:04:43.885Z,15.00
2018-06-11T04:07:11.401Z,15.00
2018-06-11T04:09:38.929Z,15.00
2018-06-11T04:14:33.882Z,15.20
2018-06-11T04:17:02.068Z,15.30
2018-06-11T04:19:29.642Z,15.40
2018-06-11T04:21:57.098Z,15.40
2018-06-11T04:24:24.598Z,15.50
2018-06-11T04:26:52.416Z,15.60
2018-06-11T04:29:19.992Z,15.60
2018-06-11T04:31:47.525Z,15.70
2018-06-11T04:34:16.126Z,15.80
2018-06-11T04:36:43.665Z,15.80
2018-06-11T04:39:11.178Z,15.90
2018-06-11T04:44:08.215Z,16.00
2018-06-11T04:46:35.777Z,16.00
2018-06-11T04:49:03.332Z,16.10
2018-06-11T04:51:30.893Z,16.20
2018-06-11T04:53:58.457Z,16.20
2018-06-11T04:56:31.697Z,16.30
2018-06-11T04:58:59.201Z,16.40
2018-06-11T05:01:26.813Z,16.40
2018-06-11T05:03:54.414Z,16.50
2018-06-11T05:06:21.982Z,16.50
2018-06-11T05:08:50.912Z,16.60
2018-06-11T05:11:18.580Z,16.60
2018-06-11T05:13:46.073Z,16.70
2018-06-11T05:16:13.638Z,16.70
2018-06-11T05:18:41.660Z,16.80
2018-06-11T05:21:10.506Z,16.80
2018-06-11T05:23:41.878Z,17.00
2018-06-11T05:26:09.442Z,17.00
2018-06-11T05:28:36.962Z,17.10
2018-06-11T05:31:04.518Z,17.20
2018-06-11T05:33:32.081Z,17.30
2018-06-11T05:35:59.797Z,17.40
2018-06-11T05:38:27.357Z,17.50
2018-06-11T05:40:54.859Z,17.70
2018-06-11T05:43:22.378Z,17.90
2018-06-11T05:45:49.884Z,18.10
2018-06-11T05:48:17.379Z,18.30
2018-06-11T05:50:44.882Z,18.40
2018-06-11T05:53:12.374Z,18.60
2018-06-11T05:55:39.938Z,18.80
2018-06-11T05:58:07.469Z,18.90
2018-06-11T06:00:34.999Z,19.20
2018-06-11T06:03:02.510Z,19.30
2018-06-11T06:05:30.039Z,19.50
2018-06-11T06:07:57.526Z,19.70
2018-06-11T06:10:25.073Z,19.90
2018-06-11T06:12:52.734Z,20.10
2018-06-11T06:15:20.242Z,20.30
2018-06-11T06:17:47.772Z,20.40
2018-06-11T06:20:15.561Z,20.60
2018-06-11T06:22:43.069Z,20.80
2018-06-11T06:27:38.318Z,21.20
2018-06-11T06:30:05.935Z,21.50
2018-06-11T06:32:33.474Z,21.70
2018-06-11T06:35:01.013Z,21.90
2018-06-11T06:37:28.538Z,22.10
2018-06-11T06:39:56.145Z,22.30
2018-06-11T06:42:23.671Z,22.50
2018-06-11T06:44:51.454Z,22.60
2018-06-11T06:47:20.467Z,22.70
2018-06-11T06:49:48.228Z,22.80
2018-06-11T06:52:16.835Z,22.90
2018-06-11T06:54:44.373Z,23.10
2018-06-11T06:57:12.146Z,23.30
2018-06-11T06:59:39.791Z,23.50
2018-06-11T07:02:07.306Z,23.80
2018-06-11T07:04:35.012Z,24.00
2018-06-11T07:07:02.683Z,24.30
2018-06-11T07:09:30.271Z,24.60
2018-06-11T07:11:57.783Z,25.00
2018-06-11T07:14:25.382Z,25.40
2018-06-11T07:16:52.960Z,25.70
2018-06-11T07:19:20.518Z,25.80
2018-06-11T07:21:48.046Z,26.00
2018-06-11T07:24:15.605Z,26.10
2018-06-11T07:26:43.144Z,26.30
2018-06-11T07:29:11.211Z,26.30
2018-06-11T07:31:38.739Z,26.30
2018-06-11T07:34:06.333Z,26.40
2018-06-11T07:36:33.854Z,26.50
2018-06-11T07:39:01.408Z,26.70
2018-06-11T07:41:28.910Z,26.90
2018-06-11T07:43:56.402Z,26.90
2018-06-11T07:46:23.952Z,26.80
2018-06-11T07:48:51.507Z,26.80
2018-06-11T07:51:19.298Z,27.00
2018-06-11T07:53:46.846Z,27.10
2018-06-11T07:56:14.357Z,27.20
2018-06-11T07:58:41.876Z,27.30
2018-06-11T08:01:09.370Z,27.40
2018-06-11T08:06:04.462Z,27.40
2018-06-11T08:08:31.973Z,27.30
2018-06-11T08:10:59.543Z,27.30
2018-06-11T08:13:27.060Z,27.40
2018-06-11T08:15:54.560Z,27.50
2018-06-11T08:18:22.122Z,27.60
2018-06-11T08:20:49.666Z,27.60
2018-06-11T08:23:17.148Z,27.60
2018-06-11T08:25:44.648Z,27.60
2018-06-11T08:28:12.155Z,27.60
2018-06-11T08:30:39.659Z,27.70
2018-06-11T08:33:07.210Z,27.70
2018-06-11T08:35:34.740Z,27.70
2018-06-11T08:38:02.330Z,27.70
2018-06-11T08:40:29.863Z,27.70
2018-06-11T08:42:57.410Z,27.70
2018-06-11T08:45:24.937Z,27.90
2018-06-11T08:47:52.462Z,28.00
2018-06-11T08:50:19.990Z,28.00
2018-06-11T08:52:47.487Z,28.20
2018-06-11T08:55:17.373Z,28.40
2018-06-11T08:57:44.929Z,28.70
2018-06-11T09:00:12.525Z,29.20
2018-06-11T09:02:40.053Z,29.70
2018-06-11T09:05:07.568Z,30.10
2018-06-11T09:07:35.074Z,30.30
2018-06-11T09:10:02.647Z,30.60
2018-06-11T09:12:30.164Z,31.00
2018-06-11T09:14:57.668Z,31.10
2018-06-11T09:17:25.166Z,31.40
2018-06-11T09:19:52.641Z,31.40
2018-06-11T09:22:20.121Z,31.40
2018-06-11T09:24:47.622Z,31.40
2018-06-11T09:27:15.109Z,31.00
2018-06-11T09:29:42.597Z,31.00
2018-06-11T09:32:10.063Z,31.10
2018-06-11T09:34:37.542Z,31.20
2018-06-11T09:37:05.083Z,31.30
2018-06-11T09:39:32.694Z,31.30
2018-06-11T09:42:00.210Z,31.30
2018-06-11T09:44:27.708Z,31.40
2018-06-11T09:46:55.197Z,31.60
2018-06-11T09:49:22.683Z,31.70
2018-06-11T09:51:50.173Z,31.70
2018-06-11T09:54:17.654Z,31.70
2018-06-11T09:56:45.284Z,31.70
2018-06-11T09:59:13.203Z,31.90
2018-06-11T10:01:40.716Z,31.90
2018-06-11T10:04:08.188Z,32.10
2018-06-11T10:06:35.727Z,32.20
2018-06-11T10:09:05.318Z,32.50
2018-06-11T10:11:32.857Z,32.90
2018-06-11T10:14:00.325Z,33.30
2018-06-11T10:16:27.862Z,33.70
2018-06-11T10:21:22.809Z,33.70
2018-06-11T10:23:50.290Z,33.80
2018-06-11T10:26:17.787Z,33.90
2018-06-11T10:28:45.335Z,33.70
2018-06-11T10:31:12.913Z,33.80
2018-06-11T10:33:40.914Z,33.70
2018-06-11T10:36:08.409Z,33.40
2018-06-11T10:38:35.897Z,32.80
2018-06-11T10:41:03.380Z,32.40
2018-06-11T10:43:31.058Z,32.20
2018-06-11T10:45:58.574Z,32.10
2018-06-11T10:48:26.050Z,32.10
2018-06-11T10:50:53.576Z,32.00
2018-06-11T10:53:21.062Z,32.30
2018-06-11T10:55:48.590Z,32.50
2018-06-11T10:58:16.117Z,33.00
2018-06-11T11:00:43.694Z,33.50
2018-06-11T11:03:11.444Z,33.90
2018-06-11T11:05:39.114Z,34.30
2018-06-11T11:08:06.610Z,34.70
2018-06-11T11:10:34.143Z,35.00
2018-06-11T11:13:01.667Z,34.90
2018-06-11T11:15:29.171Z,34.90
2018-06-11T11:17:56.657Z,34.60
2018-06-11T11:20:24.475Z,34.60
2018-06-11T11:22:52.019Z,34.50
2018-06-11T11:25:19.585Z,34.80
2018-06-11T11:27:47.148Z,35.10
2018-06-11T11:30:14.706Z,35.50
2018-06-11T11:32:42.246Z,36.10
2018-06-11T11:35:09.806Z,36.60
2018-06-11T11:37:37.327Z,36.90
2018-06-11T11:40:04.881Z,36.90
2018-06-11T11:42:32.383Z,36.60
2018-06-11T11:44:59.977Z,36.30
2018-06-11T11:47:27.481Z,36.10
2018-06-11T11:49:54.978Z,36.10
2018-06-11T11:52:23.535Z,36.00
2018-06-11T11:54:51.575Z,35.90
2018-06-11T11:57:19.046Z,35.80
2018-06-11T11:59:47.674Z,35.80
2018-06-11T12:02:15.179Z,35.80
2018-06-11T12:09:39.946Z,35.50
2018-06-11T12:12:07.462Z,35.20
2018-06-11T12:14:34.974Z,35.00
2018-06-11T12:17:02.499Z,34.70
2018-06-11T12:19:30.003Z,34.60
2018-06-11T12:21:57.489Z,34.70
2018-06-11T12:24:25.132Z,34.40
2018-06-11T12:26:52.683Z,34.20
2018-06-11T12:29:20.182Z,34.20
2018-06-11T12:31:47.666Z,34.40
2018-06-11T12:36:42.610Z,34.50
2018-06-11T12:39:10.149Z,34.60
2018-06-11T12:41:37.635Z,34.80
2018-06-11T12:44:05.172Z,35.20
2018-06-11T12:46:32.703Z,35.40
2018-06-11T12:49:00.312Z,35.70
2018-06-11T12:51:27.819Z,35.80
2018-06-11T12:53:55.329Z,35.90
2018-06-11T12:56:22.897Z,35.90
2018-06-11T12:58:50.446Z,36.00
2018-06-11T13:01:17.979Z,36.00
2018-06-11T13:03:45.491Z,35.90
2018-06-11T13:06:13.271Z,35.80
2018-06-11T13:08:40.804Z,35.50
2018-06-11T13:11:08.405Z,35.00
2018-06-11T13:13:36.191Z,34.50
2018-06-11T13:16:03.731Z,34.10
2018-06-11T13:18:31.247Z,33.90
2018-06-11T13:20:58.806Z,33.90
2018-06-11T13:23:26.341Z,34.20
2018-06-11T13:25:53.842Z,34.60
2018-06-11T13:28:21.351Z,35.20
2018-06-11T13:30:48.850Z,35.80
2018-06-11T13:33:16.409Z,36.40
2018-06-11T13:35:43.941Z,37.00
2018-06-11T13:38:11.464Z,37.20
2018-06-11T13:40:38.962Z,37.20
2018-06-11T13:43:06.498Z,37.00
2018-06-11T13:45:34.024Z,36.80
2018-06-11T13:48:01.523Z,36.30
2018-06-11T13:50:29.014Z,35.80
2018-06-11T13:52:56.523Z,35.30
2018-06-11T13:55:24.021Z,35.00
2018-06-11T13:57:51.584Z,34.80
2018-06-11T14:00:19.197Z,34.90
2018-06-11T14:02:46.715Z,34.90
2018-06-11T14:05:14.284Z,35.00
2018-06-11T14:07:41.942Z,35.10
2018-06-11T14:10:09.438Z,35.30
2018-06-11T14:12:37.063Z,35.30
2018-06-11T14:15:04.668Z,35.40
2018-06-11T14:19:59.721Z,35.40
2018-06-11T14:22:27.201Z,35.60
2018-06-11T14:24:54.701Z,35.80
2018-06-11T14:27:22.186Z,35.60
2018-06-11T14:29:49.704Z,35.50
2018-06-11T14:32:17.281Z,35.40
2018-06-11T14:34:44.815Z,35.00
2018-06-11T14:37:12.398Z,34.70
2018-06-11T14:42:07.416Z,33.40
2018-06-11T14:44:34.987Z,32.70
2018-06-11T14:47:02.494Z,32.00
2018-06-11T14:49:30.009Z,31.50
2018-06-11T14:51:57.530Z,30.90
2018-06-11T14:54:25.085Z,30.60
2018-06-11T14:56:52.654Z,30.20
2018-06-11T14:59:20.308Z,30.00
2018-06-11T15:01:47.806Z,29.90
2018-06-11T15:04:15.345Z,29.80
2018-06-11T15:06:42.853Z,29.60
2018-06-11T15:09:10.361Z,29.50
2018-06-11T15:11:37.915Z,29.50
2018-06-11T15:14:05.458Z,29.40
2018-06-11T15:16:32.976Z,29.30
2018-06-11T15:19:01.565Z,29.20
2018-06-11T15:21:29.168Z,29.10
2018-06-11T15:23:56.725Z,28.90
2018-06-11T15:26:24.232Z,28.80
2018-06-11T15:31:19.169Z,28.30
2018-06-11T15:33:46.693Z,28.10
2018-06-11T15:36:14.261Z,27.80
2018-06-11T15:38:41.782Z,27.60
2018-06-11T15:41:09.266Z,27.50
2018-06-11T15:43:36.886Z,27.30
2018-06-11T15:46:04.485Z,27.10
2018-06-11T15:48:31.971Z,26.90
2018-06-11T15:50:59.657Z,26.70
2018-06-11T15:53:27.260Z,26.40
2018-06-11T15:55:54.836Z,26.20
2018-06-11T15:58:22.393Z,26.10
2018-06-11T16:00:49.979Z,25.90
2018-06-11T16:03:17.658Z,25.80
2018-06-11T16:05:45.149Z,25.70
2018-06-11T16:08:12.645Z,25.50
2018-06-11T16:10:40.169Z,25.40
2018-06-11T16:13:07.665Z,25.30
2018-06-11T16:15:35.192Z,25.10
2018-06-11T16:18:02.807Z,24.90
2018-06-11T16:20:30.350Z,24.50
2018-06-11T16:22:57.881Z,24.00
2018-06-11T16:25:25.357Z,23.60
2018-06-11T16:27:52.854Z,23.10
2018-06-11T16:33:18.247Z,22.50
2018-06-11T16:35:45.888Z,22.10
2018-06-11T16:38:13.461Z,21.80
2018-06-11T16:40:41.085Z,21.30
2018-06-11T16:45:36.302Z,20.40
2018-06-11T16:48:10.499Z,20.10
2018-06-11T16:50:38.342Z,19.90
2018-06-11T16:53:05.842Z,19.60
2018-06-11T16:55:33.336Z,19.60
2018-06-11T16:58:00.943Z,19.40
2018-06-11T17:00:28.736Z,19.30
2018-06-11T17:02:56.323Z,19.30
2018-06-11T17:05:27.831Z,19.10
2018-06-11T17:07:55.361Z,19.10
2018-06-11T17:10:22.918Z,19.00
2018-06-11T17:12:50.496Z,18.90
2018-06-11T17:15:18.073Z,18.90
2018-06-11T17:17:45.670Z,18.80
2018-06-11T17:20:13.197Z,18.80
2018-06-11T17:22:40.658Z,18.60
2018-06-11T17:25:08.236Z,18.50
2018-06-11T17:27:40.391Z,18.40
2018-06-11T17:30:08.139Z,18.30
2018-06-11T17:32:35.643Z,18.20
2018-06-11T17:37:30.831Z,18.10
2018-06-11T17:39:58.418Z,18.10
2018-06-11T17:42:25.966Z,18.10
2018-06-11T17:44:53.701Z,18.10
2018-06-11T17:47:21.161Z,18.10
2018-06-11T17:49:48.690Z,18.10
2018-06-11T17:52:16.207Z,18.10
2018-06-11T17:54:43.838Z,18.10
2018-06-11T17:57:11.608Z,18.20
2018-06-11T17:59:39.206Z,18.20
2018-06-11T18:02:06.819Z,18.30
2018-06-11T18:04:34.444Z,18.30
2018-06-11T18:07:01.950Z,18.40
2018-06-11T18:09:29.754Z,18.30
2018-06-11T18:11:57.282Z,18.40
2018-06-11T18:14:25.010Z,18.30
2018-06-11T18:16:52.558Z,18.30
2018-06-11T18:19:20.145Z,18.20
2018-06-11T18:21:47.831Z,18.20
2018-06-11T18:24:15.314Z,18.20
2018-06-11T18:26:42.853Z,18.20
2018-06-11T18:29:10.654Z,18.20
2018-06-11T18:31:38.277Z,18.20
2018-06-11T18:34:06.074Z,18.10
2018-06-11T18:36:33.706Z,18.10
2018-06-11T18:39:02.524Z,18.00
2018-06-11T18:41:30.058Z,18.00
2018-06-11T18:43:57.598Z,17.90
2018-06-11T18:46:25.138Z,17.70
2018-06-11T18:48:52.714Z,17.70
2018-06-11T18:51:20.245Z,17.60
2018-06-11T18:53:47.796Z,17.50
2018-06-11T18:56:15.351Z,17.50
2018-06-11T18:58:42.899Z,17.40
2018-06-11T19:01:10.456Z,17.40
2018-06-11T19:03:38.048Z,17.30
2018-06-11T19:06:05.742Z,17.30
2018-06-11T19:08:38.298Z,17.30
2018-06-11T19:11:05.925Z,17.30
2018-06-11T19:13:33.484Z,17.30
2018-06-11T19:16:01.041Z,17.30
2018-06-11T19:18:28.666Z,17.30
2018-06-11T19:20:56.203Z,17.20
2018-06-11T19:23:23.791Z,17.20
2018-06-11T19:25:51.382Z,17.10
2018-06-11T19:28:18.964Z,17.10
2018-06-11T19:30:46.526Z,17.00
2018-06-11T19:33:14.211Z,16.90
2018-06-11T19:38:09.143Z,16.90
2018-06-11T19:40:36.718Z,16.80
2018-06-11T19:43:04.533Z,16.80
2018-06-11T19:47:59.610Z,16.80
2018-06-11T19:50:27.173Z,16.80
2018-06-11T19:52:54.733Z,16.80
2018-06-11T19:55:22.295Z,16.80
2018-06-11T19:57:49.863Z,16.80
2018-06-11T20:00:17.395Z,16.80
2018-06-11T20:02:44.956Z,16.80
2018-06-11T20:05:12.541Z,16.80
2018-06-11T20:07:40.071Z,16.80
2018-06-11T20:12:35.189Z,16.80
2018-06-11T20:15:02.760Z,16.80
2018-06-11T20:17:30.292Z,16.80
2018-06-11T20:19:57.885Z,16.70
2018-06-11T20:22:25.390Z,16.70
2018-06-11T20:24:52.946Z,16.60
2018-06-11T20:27:20.534Z,16.60
2018-06-11T20:29:48.140Z,16.60
2018-06-11T20:32:20.387Z,16.60
2018-06-11T20:34:47.926Z,16.60
2018-06-11T20:37:15.442Z,16.50
2018-06-11T20:39:44.022Z,16.50
2018-06-11T20:42:11.522Z,16.50
2018-06-11T20:44:39.145Z,16.60
2018-06-11T20:47:06.586Z,16.60
2018-06-11T20:49:34.114Z,16.60
2018-06-11T20:52:01.861Z,16.60
2018-06-11T20:54:29.418Z,16.60
2018-06-11T20:56:56.899Z,16.60
2018-06-11T21:01:51.955Z,16.50
2018-06-11T21:04:19.514Z,16.50
2018-06-11T21:06:47.049Z,16.50
2018-06-11T21:09:14.550Z,16.50
2018-06-11T21:11:42.054Z,16.50
2018-06-11T21:14:09.562Z,16.50
2018-06-11T21:16:37.109Z,16.50
2018-06-11T21:19:04.650Z,16.60
2018-06-11T21:23:59.646Z,16.60
2018-06-11T21:26:27.142Z,16.60
2018-06-11T21:31:22.134Z,16.60
2018-06-11T21:36:17.391Z,16.60
2018-06-11T21:38:44.913Z,16.60
2018-06-11T21:41:12.564Z,16.50
2018-06-11T21:43:40.103Z,16.60
2018-06-11T21:46:07.634Z,16.60
2018-06-11T21:48:35.150Z,16.60
2018-06-11T21:51:02.665Z,16.60
2018-06-11T21:53:30.166Z,16.70
2018-06-11T21:55:57.686Z,16.60
2018-06-11T21:58:25.229Z,16.70
2018-06-11T22:00:52.778Z,16.70
2018-06-11T22:03:20.617Z,16.70
2018-06-11T22:05:48.118Z,16.70
2018-06-11T22:08:15.624Z,16.70
2018-06-11T22:10:43.172Z,16.70
2018-06-11T22:13:10.697Z,16.70
2018-06-11T22:15:38.261Z,16.70
2018-06-11T22:18:09.645Z,16.70
2018-06-11T22:20:37.148Z,16.70
2018-06-11T22:23:04.731Z,16.70
2018-06-11T22:25:32.365Z,16.80
2018-06-11T22:27:59.893Z,16.80
2018-06-11T22:30:27.424Z,16.80
2018-06-11T22:32:54.971Z,16.80
2018-06-11T22:35:22.550Z,16.80
2018-06-11T22:37:50.074Z,16.80
2018-06-11T22:40:17.565Z,16.80
2018-06-11T22:42:45.088Z,16.80
2018-06-11T22:45:12.589Z,16.90
2018-06-11T22:47:40.103Z,16.90
2018-06-11T22:50:07.586Z,16.90
2018-06-11T22:52:35.083Z,16.90
2018-06-11T22:55:02.659Z,16.90
2018-06-11T22:57:30.213Z,16.90
2018-06-11T22:59:57.727Z,16.90
2018-06-11T23:02:25.232Z,16.90
2018-06-11T23:04:52.928Z,16.90
2018-06-11T23:07:20.715Z,16.90
2018-06-11T23:09:48.237Z,16.90
2018-06-11T23:12:15.771Z,16.90
2018-06-11T23:14:43.301Z,16.90
2018-06-11T23:17:10.828Z,16.90
2018-06-11T23:22:12.115Z,16.90
2018-06-11T23:24:45.938Z,16.90
2018-06-11T23:27:13.478Z,16.90
2018-06-11T23:29:41.006Z,17.00
2018-06-11T23:32:08.518Z,17.00
2018-06-11T23:34:36.019Z,17.00
2018-06-11T23:37:03.554Z,17.00
2018-06-11T23:39:31.065Z,17.00
2018-06-11T23:41:58.587Z,17.00
2018-06-11T23:44:26.062Z,17.00
2018-06-11T23:46:53.607Z,17.00
2018-06-11T23:49:21.447Z,17.00
2018-06-11T23:51:48.967Z,17.00
2018-06-11T23:54:16.459Z,17.00
2018-06-11T23:56:43.969Z,17.00
2018-06-11T23:59:11.547Z,17.00
